Sunday, July 22, 2018, 8:16 PM EDT
Back to Local

KUCP, New Castle, New Castle Municipal Airport

Location: Edinburg, PA, United States Lat: 41.025
Local Time: 8:16 PM EDT ( 0:16 GMT) Lon: -80.413
Time Zone: US/Eastern Elev: 1072 ft

Show me the last for .
Show Decoded

2018-07-22 19:56 METAR KUCP 222356Z AUTO 13005KT 10SM FEW055 22/21 A2982 RMK AO2 RAE17 SLP108
                 P0001 60002 T02220211 10272 20217 53012 =
2018-07-22 18:56 METAR KUCP 222256Z AUTO VRB04G14KT 3SM +RA BR FEW014 BKN035 BKN050 22/21 A2981
                 RMK AO2 RAB43 SLP104 P0001 T02170211 =
2018-07-22 17:56 METAR KUCP 222156Z AUTO 02004KT 10SM BKN032 BKN070 OVC120 24/21 A2979 RMK AO2
                 RAB26E42 SLP095 P0000 T02390211 =
2018-07-22 16:56 METAR KUCP 222056Z AUTO 06005KT 10SM FEW032 SCT060 OVC085 25/19 A2979 RMK AO2
                 SLP095 T02500194 55002 =
2018-07-22 15:56 METAR KUCP 221956Z AUTO 05007KT 10SM SCT033 BKN041 26/19 A2978 RMK AO2 SLP091
                 T02610189 =
2018-07-22 14:56 METAR KUCP 221856Z AUTO 14005KT 9SM SCT035 SCT042 SCT095 27/18 A2979 RMK AO2
                 SLP093 T02720183 =
2018-07-22 14:19 METAR KUCP 221819Z AUTO 00000KT 10SM SCT033 25/18 A2979 RMK AO2 =
2018-07-22 13:56 METAR KUCP 221756Z AUTO 00000KT 10SM OVC029 24/18 A2980 RMK AO2 SLP097 T02440178
                 10250 20167 50001 =
2018-07-22 12:56 METAR KUCP 221656Z AUTO VRB03KT 10SM BKN022 23/17 A2980 RMK AO2 SLP098 T02330172
                 =
2018-07-22 12:46 METAR KUCP 221646Z AUTO VRB06KT 10SM SCT019 23/17 A2980 RMK AO2 =
2018-07-22 11:56 METAR KUCP 221556Z AUTO VRB03KT 10SM OVC017 21/17 A2979 RMK AO2 SLP096 T02110172
                 =
2018-07-22 10:56 METAR KUCP 221456Z AUTO 00000KT 10SM OVC015 19/17 A2978 RMK AO2 SLP093 T01940167
                 53000 =
2018-07-22 09:56 METAR KUCP 221356Z AUTO 00000KT 10SM OVC013 19/17 A2977 RMK AO2 SLP091 T01890167
                 =
2018-07-22 08:56 METAR KUCP 221256Z AUTO 00000KT 10SM BKN011 OVC014 18/17 A2978 RMK AO2 CIG
                 007V012 SLP093 T01780167 =
2018-07-22 08:49 METAR KUCP 221249Z AUTO 03003KT 10SM FEW007 BKN014 18/17 A2978 RMK AO2 =
2018-07-22 08:36 METAR KUCP 221236Z AUTO 00000KT 10SM SCT007 SCT012 BKN017 17/17 A2978 RMK AO2 =
2018-07-22 08:16 METAR KUCP 221216Z AUTO 00000KT 10SM BKN017 17/17 A2978 RMK AO2 =
2018-07-22 07:56 METAR KUCP 221156Z AUTO 00000KT 10SM SCT017 17/17 A2978 RMK AO2 RAE06 SLP092
                 P0000 60001 70001 T01670167 10178 20161 53007 =
2018-07-22 06:56 METAR KUCP 221056Z AUTO 03003KT 10SM -RA FEW029 SCT050 OVC120 16/16 A2976 RMK
                 AO2 RAB0959 SLP087 P0001 T01610161 =
2018-07-22 05:56 METAR KUCP 220956Z AUTO 03004KT 10SM FEW039 SCT075 17/16 A2976 RMK AO2 SLP085
                 T01670156 =
2018-07-22 05:42 METAR KUCP 220942Z AUTO 00000KT 10SM FEW013 BKN075 BKN120 17/16 A2976 RMK AO2 =
2018-07-22 04:56 METAR KUCP 220856Z AUTO 06003KT 10SM BKN017 OVC120 17/16 A2976 RMK AO2 SLP084
                 T01670156 56017 =
2018-07-22 04:43 METAR KUCP 220843Z AUTO 07005KT 10SM BKN017 BKN120 17/16 A2975 RMK AO2 =
2018-07-22 04:31 METAR KUCP 220831Z AUTO 00000KT 10SM SCT015 BKN120 17/16 A2976 RMK AO2 =
2018-07-22 04:19 METAR KUCP 220819Z AUTO 05004KT 10SM BKN015 BKN120 17/16 A2975 RMK AO2 =
2018-07-22 03:56 METAR KUCP 220756Z AUTO 07003KT 10SM SCT015 SCT120 17/16 A2976 RMK AO2 SLP085
                 T01720156 =
2018-07-22 02:56 METAR KUCP 220656Z AUTO 08006KT 10SM CLR 17/16 A2978 RMK AO2 SLP092 T01720156 =
2018-07-22 01:56 METAR KUCP 220556Z AUTO 08004KT 10SM CLR 18/16 A2981 RMK AO2 SLP101 T01780156
                 10233 20178 58014 =
2018-07-22 00:56 METAR KUCP 220456Z AUTO 09004KT 8SM SCT021 BKN110 18/16 A2982 RMK AO2 SLP107
                 T01830161 402610183 =
2018-07-22 00:44 METAR KUCP 220444Z AUTO 07005KT 10SM BKN021 18/16 A2983 RMK AO2 =
2018-07-21 23:56 METAR KUCP 220356Z AUTO 09007KT 10SM SCT023 OVC110 19/16 A2984 RMK AO2 SLP111
                 T01940161 =
2018-07-21 22:50 METAR KUCP 220250Z AUTO 11004KT 10SM BKN025 OVC110 20/16 A2985 RMK AO2 =
2018-07-21 21:56 METAR KUCP 220156Z AUTO VRB06KT 10SM CLR 21/17 A2985 RMK AO2 SLP117 T02060167 =
2018-07-21 20:56 METAR KUCP 220056Z AUTO 11007G16KT 10SM FEW035 22/17 A2985 RMK AO2 SLP117
                 T02170172 =
2018-07-21 20:47 METAR KUCP 220047Z AUTO 11009G16KT 10SM FEW029 SCT035 22/17 A2985 RMK AO2 =
2018-07-21 20:20 METAR KUCP 220020Z AUTO 10007KT 10SM BKN027 BKN033 23/18 A2984 RMK AO2 =

Support USWX by starting your Amazon purchase here.